sensor_id;sensor_type;location;lat;lon;timestamp;pressure;altitude;pressure_sealevel;temperature;humidity
19150;BME280;9707;49.158;8.632;2022-07-21T00:00:45;100661.19;;;30.68;41.85
19150;BME280;9707;49.158;8.632;2022-07-21T00:03:10;100659.28;;;30.69;41.91
19150;BME280;9707;49.158;8.632;2022-07-21T00:05:35;100657.41;;;30.69;41.74
19150;BME280;9707;49.158;8.632;2022-07-21T00:08:01;100662.25;;;30.67;41.81
19150;BME280;9707;49.158;8.632;2022-07-21T00:10:27;100667.75;;;30.67;41.97
19150;BME280;9707;49.158;8.632;2022-07-21T00:12:53;100652.25;;;30.66;42.07
19150;BME280;9707;49.158;8.632;2022-07-21T00:15:21;100648.81;;;30.64;41.99
19150;BME280;9707;49.158;8.632;2022-07-21T00:17:47;100647.09;;;30.63;42.25
19150;BME280;9707;49.158;8.632;2022-07-21T00:20:13;100653.44;;;30.64;42.27
19150;BME280;9707;49.158;8.632;2022-07-21T00:22:40;100658.28;;;30.62;41.93
19150;BME280;9707;49.158;8.632;2022-07-21T00:25:06;100659.31;;;30.61;42.08
19150;BME280;9707;49.158;8.632;2022-07-21T00:27:32;100658.63;;;30.59;41.69
19150;BME280;9707;49.158;8.632;2022-07-21T00:29:57;100659.66;;;30.58;41.94
19150;BME280;9707;49.158;8.632;2022-07-21T00:32:23;100671.72;;;30.57;42.08
19150;BME280;9707;49.158;8.632;2022-07-21T00:34:48;100649.03;;;30.55;42.06
19150;BME280;9707;49.158;8.632;2022-07-21T00:37:13;100652.81;;;30.54;41.78
19150;BME280;9707;49.158;8.632;2022-07-21T00:39:39;100656.78;;;30.51;42.14
19150;BME280;9707;49.158;8.632;2022-07-21T00:42:04;100656.78;;;30.51;41.92
19150;BME280;9707;49.158;8.632;2022-07-21T00:44:30;100666.25;;;30.49;41.85
19150;BME280;9707;49.158;8.632;2022-07-21T00:46:56;100674.69;;;30.47;41.82
19150;BME280;9707;49.158;8.632;2022-07-21T00:49:21;100670.03;;;30.48;42.04
19150;BME280;9707;49.158;8.632;2022-07-21T00:51:48;100672.13;;;30.46;42.04
19150;BME280;9707;49.158;8.632;2022-07-21T00:54:17;100678.44;;;30.46;41.68
19150;BME280;9707;49.158;8.632;2022-07-21T00:56:45;100680.38;;;30.46;42.12
19150;BME280;9707;49.158;8.632;2022-07-21T00:59:11;100685.16;;;30.44;41.70
19150;BME280;9707;49.158;8.632;2022-07-21T01:05:09;100693.97;;;30.39;41.71
19150;BME280;9707;49.158;8.632;2022-07-21T01:07:39;100695.84;;;30.39;41.62
19150;BME280;9707;49.158;8.632;2022-07-21T01:10:05;100686.59;;;30.40;41.91
19150;BME280;9707;49.158;8.632;2022-07-21T01:12:31;100675.75;;;30.38;41.96
19150;BME280;9707;49.158;8.632;2022-07-21T01:14:57;100680.38;;;30.38;41.85
19150;BME280;9707;49.158;8.632;2022-07-21T01:17:22;100683.13;;;30.38;41.92
19150;BME280;9707;49.158;8.632;2022-07-21T01:19:48;100685.06;;;30.37;41.82
19150;BME280;9707;49.158;8.632;2022-07-21T01:22:14;100678.84;;;30.35;41.94
19150;BME280;9707;49.158;8.632;2022-07-21T01:24:39;100694.31;;;30.36;41.53
19150;BME280;9707;49.158;8.632;2022-07-21T01:27:05;100696.22;;;30.36;41.60
19150;BME280;9707;49.158;8.632;2022-07-21T01:29:30;100698.09;;;30.35;41.88
19150;BME280;9707;49.158;8.632;2022-07-21T01:31:55;100698.09;;;30.35;41.83
19150;BME280;9707;49.158;8.632;2022-07-21T01:34:21;100694.69;;;30.33;41.84
19150;BME280;9707;49.158;8.632;2022-07-21T01:36:46;100696.56;;;30.33;41.75
19150;BME280;9707;49.158;8.632;2022-07-21T01:39:13;100694.84;;;30.32;41.66
19150;BME280;9707;49.158;8.632;2022-07-21T01:41:57;100695.91;;;30.31;41.78
19150;BME280;9707;49.158;8.632;2022-07-21T01:44:22;100689.53;;;30.30;41.63
19150;BME280;9707;49.158;8.632;2022-07-21T01:46:50;100695.91;;;30.31;41.71
19150;BME280;9707;49.158;8.632;2022-07-21T01:49:17;100700.69;;;30.29;41.56
19150;BME280;9707;49.158;8.632;2022-07-21T01:51:43;100696.06;;;30.29;41.59
19150;BME280;9707;49.158;8.632;2022-07-21T01:54:10;100690.75;;;30.28;41.75
19150;BME280;9707;49.158;8.632;2022-07-21T01:56:37;100708.28;;;30.27;41.90
19150;BME280;9707;49.158;8.632;2022-07-21T01:59:03;100701.06;;;30.26;41.82
19150;BME280;9707;49.158;8.632;2022-07-21T02:01:30;100713.09;;;30.25;41.96
19150;BME280;9707;49.158;8.632;2022-07-21T02:03:58;100712.22;;;30.24;41.73
19150;BME280;9707;49.158;8.632;2022-07-21T02:06:24;100714.09;;;30.24;41.88
19150;BME280;9707;49.158;8.632;2022-07-21T02:08:50;100712.41;;;30.23;41.72
19150;BME280;9707;49.158;8.632;2022-07-21T02:11:16;100707.06;;;30.21;41.65
19150;BME280;9707;49.158;8.632;2022-07-21T02:13:42;100713.63;;;30.20;41.71
19150;BME280;9707;49.158;8.632;2022-07-21T02:16:08;100709.00;;;30.21;41.81
19150;BME280;9707;49.158;8.632;2022-07-21T02:18:34;100706.41;;;30.19;41.71
19150;BME280;9707;49.158;8.632;2022-07-21T02:21:00;100719.28;;;30.19;41.55
19150;BME280;9707;49.158;8.632;2022-07-21T02:23:26;100721.38;;;30.17;41.86
19150;BME280;9707;49.158;8.632;2022-07-21T02:25:52;100719.66;;;30.16;41.89
19150;BME280;9707;49.158;8.632;2022-07-21T02:28:20;100726.19;;;30.15;42.17
19150;BME280;9707;49.158;8.632;2022-07-21T02:30:46;100720.00;;;30.13;41.83
19150;BME280;9707;49.158;8.632;2022-07-21T02:33:12;100729.94;;;30.14;42.22
19150;BME280;9707;49.158;8.632;2022-07-21T02:35:39;100730.97;;;30.13;41.83
19150;BME280;9707;49.158;8.632;2022-07-21T02:38:05;100731.16;;;30.11;41.77
19150;BME280;9707;49.158;8.632;2022-07-21T02:40:31;100727.56;;;30.11;41.81
19150;BME280;9707;49.158;8.632;2022-07-21T02:42:56;100735.06;;;30.09;41.87
19150;BME280;9707;49.158;8.632;2022-07-21T02:45:22;100733.19;;;30.09;42.17
19150;BME280;9707;49.158;8.632;2022-07-21T02:48:02;100733.19;;;30.09;42.16
19150;BME280;9707;49.158;8.632;2022-07-21T02:50:30;100737.81;;;30.09;41.84
19150;BME280;9707;49.158;8.632;2022-07-21T02:52:57;100735.06;;;30.09;42.20
19150;BME280;9707;49.158;8.632;2022-07-21T02:55:24;100734.25;;;30.08;41.87
19150;BME280;9707;49.158;8.632;2022-07-21T02:58:03;100740.56;;;30.09;41.84
19150;BME280;9707;49.158;8.632;2022-07-21T03:00:29;100740.56;;;30.09;41.90
19150;BME280;9707;49.158;8.632;2022-07-21T03:02:54;100745.22;;;30.08;41.97
19150;BME280;9707;49.158;8.632;2022-07-21T03:05:20;100734.25;;;30.08;41.90
19150;BME280;9707;49.158;8.632;2022-07-21T03:07:45;100745.22;;;30.08;42.16
19150;BME280;9707;49.158;8.632;2022-07-21T03:10:10;100745.22;;;30.08;41.90
19150;BME280;9707;49.158;8.632;2022-07-21T03:12:36;100743.53;;;30.07;41.97
19150;BME280;9707;49.158;8.632;2022-07-21T03:15:01;100743.53;;;30.07;41.79
19150;BME280;9707;49.158;8.632;2022-07-21T03:17:26;100743.69;;;30.06;41.99
19150;BME280;9707;49.158;8.632;2022-07-21T03:19:52;100751.75;;;30.07;42.12
19150;BME280;9707;49.158;8.632;2022-07-21T03:22:17;100739.91;;;30.07;42.17
19150;BME280;9707;49.158;8.632;2022-07-21T03:24:42;100737.16;;;30.07;41.98
19150;BME280;9707;49.158;8.632;2022-07-21T03:27:07;100732.53;;;30.07;41.76
19150;BME280;9707;49.158;8.632;2022-07-21T03:29:33;100731.66;;;30.07;42.19
19150;BME280;9707;49.158;8.632;2022-07-21T03:31:58;100738.88;;;30.08;41.66
19150;BME280;9707;49.158;8.632;2022-07-21T03:34:23;100755.34;;;30.08;42.12
19150;BME280;9707;49.158;8.632;2022-07-21T03:36:49;100740.94;;;30.06;42.10
19150;BME280;9707;49.158;8.632;2022-07-21T03:39:14;100744.38;;;30.08;41.95
19150;BME280;9707;49.158;8.632;2022-07-21T03:41:39;100750.91;;;30.07;41.82
19150;BME280;9707;49.158;8.632;2022-07-21T03:44:05;100751.94;;;30.06;41.97
19150;BME280;9707;49.158;8.632;2022-07-21T03:46:30;100746.44;;;30.06;42.08
19150;BME280;9707;49.158;8.632;2022-07-21T03:48:55;100751.94;;;30.06;42.01
19150;BME280;9707;49.158;8.632;2022-07-21T03:51:21;100750.91;;;30.07;42.07
19150;BME280;9707;49.158;8.632;2022-07-21T03:53:46;100756.38;;;30.07;42.05
19150;BME280;9707;49.158;8.632;2022-07-21T03:56:11;100751.94;;;30.06;41.89
19150;BME280;9707;49.158;8.632;2022-07-21T03:58:36;100757.44;;;30.06;41.83
19150;BME280;9707;49.158;8.632;2022-07-21T04:01:02;100751.22;;;30.04;41.88
19150;BME280;9707;49.158;8.632;2022-07-21T04:03:27;100762.06;;;30.05;41.91
19150;BME280;9707;49.158;8.632;2022-07-21T04:05:52;100767.72;;;30.04;41.86
19150;BME280;9707;49.158;8.632;2022-07-21T04:08:18;100771.34;;;30.04;41.69
19150;BME280;9707;49.158;8.632;2022-07-21T04:10:43;100769.63;;;30.03;41.89
19150;BME280;9707;49.158;8.632;2022-07-21T04:13:12;100766.72;;;30.05;41.85
19150;BME280;9707;49.158;8.632;2022-07-21T04:15:38;100755.88;;;30.03;41.69
19150;BME280;9707;49.158;8.632;2022-07-21T04:18:05;100753.16;;;30.03;41.97
19150;BME280;9707;49.158;8.632;2022-07-21T04:20:31;100748.69;;;30.02;41.71
19150;BME280;9707;49.158;8.632;2022-07-21T04:22:57;100744.03;;;30.03;41.96
19150;BME280;9707;49.158;8.632;2022-07-21T04:25:22;100752.28;;;30.03;41.79
19150;BME280;9707;49.158;8.632;2022-07-21T04:27:49;100755.00;;;30.03;41.85
19150;BME280;9707;49.158;8.632;2022-07-21T04:30:17;100755.00;;;30.03;41.87
19150;BME280;9707;49.158;8.632;2022-07-21T04:32:43;100753.16;;;30.03;41.93
19150;BME280;9707;49.158;8.632;2022-07-21T04:35:09;100757.75;;;30.03;41.70
19150;BME280;9707;49.158;8.632;2022-07-21T04:37:35;100759.47;;;30.04;41.99
19150;BME280;9707;49.158;8.632;2022-07-21T04:40:02;100768.75;;;30.03;41.99
19150;BME280;9707;49.158;8.632;2022-07-21T04:42:28;100770.47;;;30.04;41.86
19150;BME280;9707;49.158;8.632;2022-07-21T04:44:54;100769.63;;;30.03;41.99
19150;BME280;9707;49.158;8.632;2022-07-21T04:47:19;100765.16;;;30.02;41.89
19150;BME280;9707;49.158;8.632;2022-07-21T04:49:44;100764.28;;;30.02;41.89
19150;BME280;9707;49.158;8.632;2022-07-21T04:52:10;100772.53;;;30.02;42.14
19150;BME280;9707;49.158;8.632;2022-07-21T04:54:35;100770.84;;;30.01;42.28
19150;BME280;9707;49.158;8.632;2022-07-21T04:57:01;100774.63;;;30.00;42.17
19150;BME280;9707;49.158;8.632;2022-07-21T04:59:28;100779.25;;;29.99;42.03
19150;BME280;9707;49.158;8.632;2022-07-21T05:01:55;100779.41;;;29.98;41.98
19150;BME280;9707;49.158;8.632;2022-07-21T05:04:20;100796.94;;;29.97;42.54
19150;BME280;9707;49.158;8.632;2022-07-21T05:06:45;100801.59;;;29.96;42.30
19150;BME280;9707;49.158;8.632;2022-07-21T05:09:11;100805.34;;;29.95;42.45
19150;BME280;9707;49.158;8.632;2022-07-21T05:11:36;100804.50;;;29.95;42.41
19150;BME280;9707;49.158;8.632;2022-07-21T05:14:01;100808.28;;;29.94;42.18
19150;BME280;9707;49.158;8.632;2022-07-21T05:16:27;100808.28;;;29.94;42.17
19150;BME280;9707;49.158;8.632;2022-07-21T05:18:52;100811.69;;;29.96;42.48
19150;BME280;9707;49.158;8.632;2022-07-21T05:21:17;100804.34;;;29.96;42.49
19150;BME280;9707;49.158;8.632;2022-07-21T05:23:43;100804.34;;;29.96;42.45
19150;BME280;9707;49.158;8.632;2022-07-21T05:26:10;100808.97;;;29.96;42.63
19150;BME280;9707;49.158;8.632;2022-07-21T05:28:37;100811.69;;;29.96;42.44
19150;BME280;9707;49.158;8.632;2022-07-21T05:31:02;100814.44;;;29.96;42.67
19150;BME280;9707;49.158;8.632;2022-07-21T05:33:28;100819.94;;;29.96;42.97
19150;BME280;9707;49.158;8.632;2022-07-21T05:35:53;100818.06;;;29.96;42.77
19150;BME280;9707;49.158;8.632;2022-07-21T05:38:18;100818.06;;;29.96;42.68
19150;BME280;9707;49.158;8.632;2022-07-21T05:40:44;100812.56;;;29.96;42.73
19150;BME280;9707;49.158;8.632;2022-07-21T05:43:09;100818.91;;;29.97;42.61
19150;BME280;9707;49.158;8.632;2022-07-21T05:45:34;100818.75;;;29.98;42.35
19150;BME280;9707;49.158;8.632;2022-07-21T05:48:00;100811.38;;;29.99;42.49
19150;BME280;9707;49.158;8.632;2022-07-21T05:50:25;100820.28;;;30.01;42.63
19150;BME280;9707;49.158;8.632;2022-07-21T05:52:51;100810.34;;;30.00;42.41
19150;BME280;9707;49.158;8.632;2022-07-21T05:55:16;100813.91;;;30.00;42.37
19150;BME280;9707;49.158;8.632;2022-07-21T05:57:41;100809.28;;;30.01;42.48
19150;BME280;9707;49.158;8.632;2022-07-21T06:00:08;100805.50;;;30.02;42.45
19150;BME280;9707;49.158;8.632;2022-07-21T06:02:34;100808.09;;;30.03;42.48
19150;BME280;9707;49.158;8.632;2022-07-21T06:04:59;100806.19;;;30.04;42.20
19150;BME280;9707;49.158;8.632;2022-07-21T06:07:25;100808.94;;;30.04;42.15
19150;BME280;9707;49.158;8.632;2022-07-21T06:09:50;100807.22;;;30.03;42.25
19150;BME280;9707;49.158;8.632;2022-07-21T06:12:15;100813.41;;;30.05;41.92
19150;BME280;9707;49.158;8.632;2022-07-21T06:14:41;100806.00;;;30.05;41.88
19150;BME280;9707;49.158;8.632;2022-07-21T06:17:06;100805.84;;;30.07;41.91
19150;BME280;9707;49.158;8.632;2022-07-21T06:19:32;100803.09;;;30.07;42.14
19150;BME280;9707;49.158;8.632;2022-07-21T06:21:57;100810.31;;;30.08;41.79
19150;BME280;9707;49.158;8.632;2022-07-21T06:24:22;100814.75;;;30.09;41.58
19150;BME280;9707;49.158;8.632;2022-07-21T06:26:48;100814.75;;;30.09;41.48
19150;BME280;9707;49.158;8.632;2022-07-21T06:29:14;100818.38;;;30.09;41.55
19150;BME280;9707;49.158;8.632;2022-07-21T06:31:39;100822.84;;;30.10;41.26
19150;BME280;9707;49.158;8.632;2022-07-21T06:34:05;100824.75;;;30.10;41.16
19150;BME280;9707;49.158;8.632;2022-07-21T06:36:30;100825.44;;;30.12;40.95
19150;BME280;9707;49.158;8.632;2022-07-21T06:38:56;100822.72;;;30.12;40.39
19150;BME280;9707;49.158;8.632;2022-07-21T06:41:21;100822.84;;;30.10;40.27
19150;BME280;9707;49.158;8.632;2022-07-21T06:43:46;100816.50;;;30.10;40.15
19150;BME280;9707;49.158;8.632;2022-07-21T06:46:12;100821.00;;;30.11;39.84
19150;BME280;9707;49.158;8.632;2022-07-21T06:48:37;100823.56;;;30.12;40.13
19150;BME280;9707;49.158;8.632;2022-07-21T06:54:24;100831.81;;;30.12;39.83
19150;BME280;9707;49.158;8.632;2022-07-21T07:00:12;100837.13;;;30.14;39.64
19150;BME280;9707;49.158;8.632;2022-07-21T07:02:37;100836.78;;;30.17;39.77
19150;BME280;9707;49.158;8.632;2022-07-21T07:05:03;100834.03;;;30.17;39.84
19150;BME280;9707;49.158;8.632;2022-07-21T07:07:28;100842.94;;;30.19;39.84
19150;BME280;9707;49.158;8.632;2022-07-21T07:09:55;100846.41;;;30.21;39.37
19150;BME280;9707;49.158;8.632;2022-07-21T07:12:21;100846.25;;;30.22;39.65
19150;BME280;9707;49.158;8.632;2022-07-21T07:14:46;100849.81;;;30.23;39.82
19150;BME280;9707;49.158;8.632;2022-07-21T07:17:16;100839.53;;;30.25;39.87
19150;BME280;9707;49.158;8.632;2022-07-21T07:19:41;100848.63;;;30.25;39.54
19150;BME280;9707;49.158;8.632;2022-07-21T07:22:07;100847.56;;;30.26;39.87
19150;BME280;9707;49.158;8.632;2022-07-21T07:24:32;100854.97;;;30.26;39.69
19150;BME280;9707;49.158;8.632;2022-07-21T07:26:57;100850.16;;;30.28;39.89
19150;BME280;9707;49.158;8.632;2022-07-21T07:29:23;100858.56;;;30.26;39.72
19150;BME280;9707;49.158;8.632;2022-07-21T07:31:48;100847.56;;;30.26;39.18
19150;BME280;9707;49.158;8.632;2022-07-21T07:34:13;100857.72;;;30.26;39.24
19150;BME280;9707;49.158;8.632;2022-07-21T07:36:39;100864.28;;;30.25;39.25
19150;BME280;9707;49.158;8.632;2022-07-21T07:39:04;100860.47;;;30.26;39.69
19150;BME280;9707;49.158;8.632;2022-07-21T07:41:30;100862.03;;;30.28;39.67
19150;BME280;9707;49.158;8.632;2022-07-21T07:43:57;100865.44;;;30.30;39.37
19150;BME280;9707;49.158;8.632;2022-07-21T07:46:25;100856.16;;;30.31;39.47
19150;BME280;9707;49.158;8.632;2022-07-21T07:48:51;100863.03;;;30.35;39.21
19150;BME280;9707;49.158;8.632;2022-07-21T07:51:16;100858.41;;;30.36;38.83
19150;BME280;9707;49.158;8.632;2022-07-21T07:53:41;100867.31;;;30.38;39.22
19150;BME280;9707;49.158;8.632;2022-07-21T07:56:08;100866.28;;;30.39;39.24
19150;BME280;9707;49.158;8.632;2022-07-21T07:58:34;100869.91;;;30.39;38.92
19150;BME280;9707;49.158;8.632;2022-07-21T08:01:00;100877.09;;;30.40;38.81
19150;BME280;9707;49.158;8.632;2022-07-21T08:03:27;100862.53;;;30.40;38.22
19150;BME280;9707;49.158;8.632;2022-07-21T08:05:54;100867.81;;;30.41;37.95
19150;BME280;9707;49.158;8.632;2022-07-21T08:08:19;100858.75;;;30.41;38.42
19150;BME280;9707;49.158;8.632;2022-07-21T08:10:45;100855.81;;;30.42;38.04
19150;BME280;9707;49.158;8.632;2022-07-21T08:13:15;100857.69;;;30.42;38.26
19150;BME280;9707;49.158;8.632;2022-07-21T08:15:42;100854.78;;;30.43;38.54
19150;BME280;9707;49.158;8.632;2022-07-21T08:18:07;100857.38;;;30.45;37.79
19150;BME280;9707;49.158;8.632;2022-07-21T08:20:34;100852.69;;;30.45;38.21
19150;BME280;9707;49.158;8.632;2022-07-21T08:23:00;100861.81;;;30.46;38.25
19150;BME280;9707;49.158;8.632;2022-07-21T08:25:25;100853.56;;;30.46;38.00
19150;BME280;9707;49.158;8.632;2022-07-21T08:27:50;100858.03;;;30.47;37.77
19150;BME280;9707;49.158;8.632;2022-07-21T08:30:16;100857.88;;;30.48;38.19
19150;BME280;9707;49.158;8.632;2022-07-21T08:32:41;100851.16;;;30.51;38.08
19150;BME280;9707;49.158;8.632;2022-07-21T08:35:07;100859.03;;;30.54;38.36
19150;BME280;9707;49.158;8.632;2022-07-21T08:37:38;100855.28;;;30.55;38.01
19150;BME280;9707;49.158;8.632;2022-07-21T08:40:04;100856.13;;;30.55;38.16
19150;BME280;9707;49.158;8.632;2022-07-21T08:42:30;100857.81;;;30.56;37.65
19150;BME280;9707;49.158;8.632;2022-07-21T08:44:56;100867.97;;;30.56;37.97
19150;BME280;9707;49.158;8.632;2022-07-21T08:47:23;100861.63;;;30.55;37.83
19150;BME280;9707;49.158;8.632;2022-07-21T08:49:49;100869.69;;;30.57;38.17
19150;BME280;9707;49.158;8.632;2022-07-21T08:52:15;100864.19;;;30.57;37.97
19150;BME280;9707;49.158;8.632;2022-07-21T08:54:40;100867.63;;;30.59;38.00
19150;BME280;9707;49.158;8.632;2022-07-21T08:57:05;100861.94;;;30.60;38.49
19150;BME280;9707;49.158;8.632;2022-07-21T08:59:31;100857.16;;;30.62;37.89
19150;BME280;9707;49.158;8.632;2022-07-21T09:01:57;100859.69;;;30.64;38.19
19150;BME280;9707;49.158;8.632;2022-07-21T09:07:06;100866.78;;;30.66;38.28
19150;BME280;9707;49.158;8.632;2022-07-21T09:09:35;100861.25;;;30.66;37.56
19150;BME280;9707;49.158;8.632;2022-07-21T09:12:02;100867.47;;;30.68;37.65
19150;BME280;9707;49.158;8.632;2022-07-21T09:14:33;100850.78;;;30.70;37.56
19150;BME280;9707;49.158;8.632;2022-07-21T09:17:01;100848.72;;;30.72;37.45
19150;BME280;9707;49.158;8.632;2022-07-21T09:19:28;100844.75;;;30.74;37.23
19150;BME280;9707;49.158;8.632;2022-07-21T09:22:00;100855.59;;;30.76;37.40
19150;BME280;9707;49.158;8.632;2022-07-21T09:24:34;100854.53;;;30.77;37.40
19150;BME280;9707;49.158;8.632;2022-07-21T09:27:14;100842.50;;;30.78;37.73
19150;BME280;9707;49.158;8.632;2022-07-21T09:29:47;100840.41;;;30.80;37.55
19150;BME280;9707;49.158;8.632;2022-07-21T09:34:38;100851.06;;;30.83;37.46
19150;BME280;9707;49.158;8.632;2022-07-21T09:37:05;100853.66;;;30.84;37.21
19150;BME280;9707;49.158;8.632;2022-07-21T09:39:56;100849.00;;;30.85;37.03
19150;BME280;9707;49.158;8.632;2022-07-21T09:44:56;100847.59;;;30.89;36.71
19150;BME280;9707;49.158;8.632;2022-07-21T09:47:23;100841.94;;;30.90;36.81
19150;BME280;9707;49.158;8.632;2022-07-21T09:49:50;100848.97;;;30.93;36.31
19150;BME280;9707;49.158;8.632;2022-07-21T09:52:31;100847.94;;;30.94;36.26
19150;BME280;9707;49.158;8.632;2022-07-21T09:55:00;100845.88;;;30.96;36.87
19150;BME280;9707;49.158;8.632;2022-07-21T09:57:26;100841.91;;;30.98;36.94
19150;BME280;9707;49.158;8.632;2022-07-21T09:59:52;100840.00;;;30.99;36.92
19150;BME280;9707;49.158;8.632;2022-07-21T10:02:31;100834.13;;;31.02;36.54
19150;BME280;9707;49.158;8.632;2022-07-21T10:05:00;100829.31;;;31.04;36.48
19150;BME280;9707;49.158;8.632;2022-07-21T10:07:27;100834.47;;;31.07;36.30
19150;BME280;9707;49.158;8.632;2022-07-21T10:09:54;100822.41;;;31.08;35.88
19150;BME280;9707;49.158;8.632;2022-07-21T10:12:20;100830.31;;;31.11;35.85
19150;BME280;9707;49.158;8.632;2022-07-21T10:14:46;100825.47;;;31.13;36.24
19150;BME280;9707;49.158;8.632;2022-07-21T10:17:13;100822.56;;;31.14;36.03
19150;BME280;9707;49.158;8.632;2022-07-21T10:24:47;100818.59;;;31.17;35.27
19150;BME280;9707;49.158;8.632;2022-07-21T10:27:14;100817.53;;;31.18;35.55
19150;BME280;9707;49.158;8.632;2022-07-21T10:29:54;100820.81;;;31.21;35.64
19150;BME280;9707;49.158;8.632;2022-07-21T10:32:25;100808.75;;;31.22;35.63
19150;BME280;9707;49.158;8.632;2022-07-21T10:34:53;100801.19;;;31.24;35.16
19150;BME280;9707;49.158;8.632;2022-07-21T10:42:43;100797.03;;;31.28;34.62
19150;BME280;9707;49.158;8.632;2022-07-21T10:45:34;100806.84;;;31.31;34.97
19150;BME280;9707;49.158;8.632;2022-07-21T10:48:01;100809.38;;;31.32;34.00
19150;BME280;9707;49.158;8.632;2022-07-21T10:50:39;100802.00;;;31.33;33.90
19150;BME280;9707;49.158;8.632;2022-07-21T10:55:38;100809.69;;;31.37;34.08
19150;BME280;9707;49.158;8.632;2022-07-21T11:03:22;100795.41;;;31.42;33.97
19150;BME280;9707;49.158;8.632;2022-07-21T11:11:14;100802.91;;;31.48;33.17
19150;BME280;9707;49.158;8.632;2022-07-21T11:22:22;100791.53;;;31.51;33.24
19150;BME280;9707;49.158;8.632;2022-07-21T11:27:24;100787.38;;;31.55;33.34
19150;BME280;9707;49.158;8.632;2022-07-21T11:29:51;100792.50;;;31.58;33.59
19150;BME280;9707;49.158;8.632;2022-07-21T11:32:18;100784.91;;;31.60;33.67
19150;BME280;9707;49.158;8.632;2022-07-21T11:34:50;100784.56;;;31.63;33.24
19150;BME280;9707;49.158;8.632;2022-07-21T11:37:18;100787.13;;;31.64;33.39
19150;BME280;9707;49.158;8.632;2022-07-21T11:39:44;100780.41;;;31.67;33.36
19150;BME280;9707;49.158;8.632;2022-07-21T11:42:14;100783.16;;;31.67;33.52
19150;BME280;9707;49.158;8.632;2022-07-21T11:44:41;100787.63;;;31.68;33.76
19150;BME280;9707;49.158;8.632;2022-07-21T11:47:11;100781.06;;;31.69;33.64
19150;BME280;9707;49.158;8.632;2022-07-21T11:49:37;100776.19;;;31.71;33.43
19150;BME280;9707;49.158;8.632;2022-07-21T11:52:05;100776.19;;;31.71;33.87
19150;BME280;9707;49.158;8.632;2022-07-21T11:54:37;100772.44;;;31.72;33.27
19150;BME280;9707;49.158;8.632;2022-07-21T11:57:05;100775.00;;;31.73;33.18
19150;BME280;9707;49.158;8.632;2022-07-21T11:59:32;100774.00;;;31.74;33.47
19150;BME280;9707;49.158;8.632;2022-07-21T12:02:01;100779.28;;;31.76;32.70
19150;BME280;9707;49.158;8.632;2022-07-21T12:04:51;100769.13;;;31.76;32.54
19150;BME280;9707;49.158;8.632;2022-07-21T12:09:59;100766.22;;;31.78;33.03
19150;BME280;9707;49.158;8.632;2022-07-21T12:14:57;100762.41;;;31.79;31.91
19150;BME280;9707;49.158;8.632;2022-07-21T12:17:37;100769.63;;;31.80;32.31
19150;BME280;9707;49.158;8.632;2022-07-21T12:20:05;100769.63;;;31.80;32.31
19150;BME280;9707;49.158;8.632;2022-07-21T12:22:40;100752.03;;;31.81;31.83
19150;BME280;9707;49.158;8.632;2022-07-21T12:25:08;100762.88;;;31.82;31.89
19150;BME280;9707;49.158;8.632;2022-07-21T12:27:35;100761.66;;;31.85;31.58
19150;BME280;9707;49.158;8.632;2022-07-21T12:30:03;100757.00;;;31.85;32.04
19150;BME280;9707;49.158;8.632;2022-07-21T12:32:46;100760.59;;;31.86;31.38
19150;BME280;9707;49.158;8.632;2022-07-21T12:35:21;100755.09;;;31.86;31.67
19150;BME280;9707;49.158;8.632;2022-07-21T12:40:18;100751.97;;;31.89;30.89
19150;BME280;9707;49.158;8.632;2022-07-21T12:42:43;100754.91;;;31.87;31.41
19150;BME280;9707;49.158;8.632;2022-07-21T12:45:13;100754.72;;;31.89;32.20
19150;BME280;9707;49.158;8.632;2022-07-21T12:47:39;100750.94;;;31.90;31.37
19150;BME280;9707;49.158;8.632;2022-07-21T12:50:07;100754.56;;;31.90;30.98
19150;BME280;9707;49.158;8.632;2022-07-21T12:52:33;100755.38;;;31.91;30.98
19150;BME280;9707;49.158;8.632;2022-07-21T12:54:59;100749.88;;;31.91;31.26
19150;BME280;9707;49.158;8.632;2022-07-21T12:57:29;100756.25;;;31.91;31.54
19150;BME280;9707;49.158;8.632;2022-07-21T12:59:56;100754.38;;;31.92;31.46
19150;BME280;9707;49.158;8.632;2022-07-21T13:02:23;100756.06;;;31.93;30.67
19150;BME280;9707;49.158;8.632;2022-07-21T13:04:48;100743.13;;;31.93;30.87
19150;BME280;9707;49.158;8.632;2022-07-21T13:07:14;100751.22;;;31.95;30.91
19150;BME280;9707;49.158;8.632;2022-07-21T13:09:40;100742.78;;;31.96;30.76
19150;BME280;9707;49.158;8.632;2022-07-21T13:19:03;100749.16;;;31.97;31.68
19150;BME280;9707;49.158;8.632;2022-07-21T13:24:51;100734.31;;;31.98;31.45
19150;BME280;9707;49.158;8.632;2022-07-21T13:27:17;100736.69;;;32.01;30.98
19150;BME280;9707;49.158;8.632;2022-07-21T13:29:43;100737.38;;;32.03;30.99
19150;BME280;9707;49.158;8.632;2022-07-21T13:32:08;100739.72;;;32.06;31.32
19150;BME280;9707;49.158;8.632;2022-07-21T13:34:34;100734.03;;;32.07;31.18
19150;BME280;9707;49.158;8.632;2022-07-21T13:37:00;100720.06;;;32.09;31.30
19150;BME280;9707;49.158;8.632;2022-07-21T13:39:25;100718.84;;;32.11;30.81
19150;BME280;9707;49.158;8.632;2022-07-21T13:41:55;100716.94;;;32.12;30.51
19150;BME280;9707;49.158;8.632;2022-07-21T13:44:21;100719.72;;;32.12;30.95
19150;BME280;9707;49.158;8.632;2022-07-21T13:46:46;100720.34;;;32.14;30.45
19150;BME280;9707;49.158;8.632;2022-07-21T13:49:11;100716.56;;;32.15;30.79
19150;BME280;9707;49.158;8.632;2022-07-21T13:51:37;100713.44;;;32.18;31.40
19150;BME280;9707;49.158;8.632;2022-07-21T13:54:03;100716.84;;;32.20;30.74
19150;BME280;9707;49.158;8.632;2022-07-21T13:56:29;100711.97;;;32.22;30.57
19150;BME280;9707;49.158;8.632;2022-07-21T13:58:54;100718.19;;;32.24;30.91
19150;BME280;9707;49.158;8.632;2022-07-21T14:01:20;100710.41;;;32.27;31.16
19150;BME280;9707;49.158;8.632;2022-07-21T14:03:46;100711.91;;;32.30;30.12
19150;BME280;9707;49.158;8.632;2022-07-21T14:06:12;100707.06;;;32.32;30.37
19150;BME280;9707;49.158;8.632;2022-07-21T14:08:38;100706.03;;;32.33;30.78